createdAt,value
2022-10-20T00:00:34.886Z,55.40
2022-10-20T00:03:02.707Z,54.90
2022-10-20T00:05:30.479Z,55.65
2022-10-20T00:07:58.141Z,55.30
2022-10-20T00:10:25.848Z,55.47
2022-10-20T00:12:54.921Z,55.47
2022-10-20T00:15:22.576Z,55.29
2022-10-20T00:17:50.243Z,55.11
2022-10-20T00:20:23.902Z,55.20
2022-10-20T00:22:59.234Z,55.27
2022-10-20T00:25:26.928Z,55.38
2022-10-20T00:27:58.153Z,55.08
2022-10-20T00:30:25.902Z,55.24
2022-10-20T00:32:53.567Z,55.21
2022-10-20T00:35:21.214Z,55.30
2022-10-20T00:37:48.836Z,54.87
2022-10-20T00:40:16.541Z,55.42
2022-10-20T00:42:45.460Z,55.33
2022-10-20T00:45:15.371Z,55.23
2022-10-20T00:50:16.251Z,55.04
2022-10-20T00:52:44.154Z,55.36
2022-10-20T00:55:11.904Z,55.26
2022-10-20T00:57:40.052Z,55.46
2022-10-20T01:00:08.933Z,55.41
2022-10-20T01:02:38.307Z,55.53
2022-10-20T01:05:07.278Z,55.23
2022-10-20T01:07:35.522Z,55.07
2022-10-20T01:10:03.935Z,54.80
2022-10-20T01:12:34.980Z,55.01
2022-10-20T01:15:05.944Z,54.89
2022-10-20T01:17:41.323Z,55.26
2022-10-20T01:20:44.835Z,55.43
2022-10-20T01:23:27.296Z,55.67
2022-10-20T01:26:02.819Z,55.32
2022-10-20T01:28:33.859Z,55.68
2022-10-20T01:31:03.038Z,55.58
2022-10-20T01:33:33.797Z,55.61
2022-10-20T01:36:04.122Z,55.33
2022-10-20T01:38:34.359Z,55.61
2022-10-20T01:41:03.263Z,55.35
2022-10-20T01:43:34.758Z,55.33
2022-10-20T01:46:02.599Z,55.38
2022-10-20T01:48:34.199Z,55.19
2022-10-20T01:51:02.219Z,55.03
2022-10-20T01:53:30.120Z,55.41
2022-10-20T01:55:58.520Z,55.02
2022-10-20T01:58:55.913Z,54.88
2022-10-20T02:01:29.655Z,54.82
2022-10-20T02:03:58.141Z,55.10
2022-10-20T02:06:32.917Z,54.93
2022-10-20T02:09:01.217Z,54.69
2022-10-20T02:11:37.919Z,54.22
2022-10-20T02:14:07.129Z,54.60
2022-10-20T02:16:37.241Z,55.02
2022-10-20T02:19:05.069Z,54.51
2022-10-20T02:21:32.793Z,54.54
2022-10-20T02:24:03.647Z,54.70
2022-10-20T02:26:32.316Z,54.31
2022-10-20T02:29:01.315Z,54.13
2022-10-20T02:31:30.415Z,54.39
2022-10-20T02:33:58.195Z,54.14
2022-10-20T02:36:27.715Z,54.16
2022-10-20T02:38:55.437Z,54.05
2022-10-20T02:41:23.159Z,54.41
2022-10-20T02:43:51.276Z,54.20
2022-10-20T02:46:18.963Z,54.26
2022-10-20T02:48:48.001Z,54.09
2022-10-20T02:51:17.400Z,54.07
2022-10-20T02:53:45.372Z,53.58
2022-10-20T02:56:14.026Z,53.57
2022-10-20T02:58:42.812Z,53.68
2022-10-20T03:01:10.663Z,53.91
2022-10-20T03:03:38.429Z,54.32
2022-10-20T03:06:11.461Z,53.81
2022-10-20T03:08:39.403Z,53.75
2022-10-20T03:11:07.341Z,54.05
2022-10-20T03:13:36.329Z,53.79
2022-10-20T03:16:05.128Z,54.02
2022-10-20T03:18:35.094Z,54.23
2022-10-20T03:26:07.422Z,53.95
2022-10-20T03:28:35.085Z,54.30
2022-10-20T03:31:02.655Z,53.93
2022-10-20T03:33:30.212Z,54.47
2022-10-20T03:35:57.777Z,54.15
2022-10-20T03:38:25.524Z,53.74
2022-10-20T03:40:53.212Z,54.09
2022-10-20T03:43:22.215Z,53.81
2022-10-20T03:45:50.089Z,53.87
2022-10-20T03:48:17.791Z,53.85
2022-10-20T03:50:45.522Z,53.67
2022-10-20T03:53:13.673Z,53.57
2022-10-20T03:55:41.508Z,53.40
2022-10-20T03:58:09.044Z,53.32
2022-10-20T04:00:38.000Z,53.40
2022-10-20T04:03:05.570Z,53.22
2022-10-20T04:05:33.191Z,53.29
2022-10-20T04:08:00.729Z,53.35
2022-10-20T04:10:28.351Z,52.95
2022-10-20T04:12:59.033Z,53.18
2022-10-20T04:15:26.699Z,52.75
2022-10-20T04:17:55.687Z,53.04
2022-10-20T04:20:23.368Z,52.89
2022-10-20T04:22:50.958Z,52.89
2022-10-20T04:25:19.315Z,52.90
2022-10-20T04:27:47.084Z,52.93
2022-10-20T04:30:14.737Z,52.37
2022-10-20T04:32:42.394Z,52.68
2022-10-20T04:35:11.511Z,52.64
2022-10-20T04:37:39.651Z,52.53
2022-10-20T04:40:08.561Z,52.46
2022-10-20T04:42:36.184Z,52.58
2022-10-20T04:45:03.853Z,52.10
2022-10-20T04:47:46.834Z,52.07
2022-10-20T04:50:15.971Z,52.29
2022-10-20T04:52:44.596Z,52.18
2022-10-20T04:55:12.128Z,52.16
2022-10-20T04:57:39.955Z,52.25
2022-10-20T05:00:08.660Z,52.34
2022-10-20T05:02:36.252Z,52.54
2022-10-20T05:05:04.890Z,52.14
2022-10-20T05:07:34.216Z,52.30
2022-10-20T05:10:02.089Z,52.19
2022-10-20T05:12:29.661Z,51.99
2022-10-20T05:14:57.269Z,51.92
2022-10-20T05:17:24.924Z,51.94
2022-10-20T05:19:52.457Z,51.98
2022-10-20T05:22:20.095Z,51.84
2022-10-20T05:24:49.239Z,51.95
2022-10-20T05:27:16.779Z,51.89
2022-10-20T05:29:44.424Z,51.95
2022-10-20T05:32:12.162Z,51.82
2022-10-20T05:34:40.051Z,52.00
2022-10-20T05:37:07.580Z,51.98
2022-10-20T05:39:35.225Z,51.76
2022-10-20T05:42:04.327Z,51.56
2022-10-20T05:44:32.140Z,51.73
2022-10-20T05:46:59.700Z,51.99
2022-10-20T05:49:27.509Z,51.85
2022-10-20T05:51:55.054Z,51.95
2022-10-20T05:54:22.810Z,51.65
2022-10-20T05:56:50.348Z,51.68
2022-10-20T05:59:19.397Z,51.97
2022-10-20T06:01:50.115Z,51.91
2022-10-20T06:04:18.323Z,52.01
2022-10-20T06:06:45.883Z,51.83
2022-10-20T06:09:13.510Z,52.08
2022-10-20T06:11:41.167Z,51.96
2022-10-20T06:14:09.030Z,52.29
2022-10-20T06:16:37.985Z,52.48
2022-10-20T06:19:06.658Z,52.37
2022-10-20T06:21:34.642Z,52.34
2022-10-20T06:24:04.241Z,52.53
2022-10-20T06:26:33.294Z,52.94
2022-10-20T06:29:04.288Z,52.97
2022-10-20T06:31:34.524Z,53.04
2022-10-20T06:34:05.025Z,52.85
2022-10-20T06:36:32.895Z,53.12
2022-10-20T06:39:01.745Z,53.21
2022-10-20T06:41:29.413Z,53.26
2022-10-20T06:43:59.578Z,53.40
2022-10-20T06:46:27.813Z,53.46
2022-10-20T06:48:58.595Z,53.46
2022-10-20T06:51:35.475Z,53.58
2022-10-20T06:54:03.084Z,53.43
2022-10-20T06:56:31.667Z,53.38
2022-10-20T06:58:59.566Z,53.36
2022-10-20T07:01:27.822Z,53.09
2022-10-20T07:03:56.488Z,53.01
2022-10-20T07:06:26.592Z,52.77
2022-10-20T07:08:56.305Z,53.18
2022-10-20T07:11:25.009Z,53.07
2022-10-20T07:13:52.674Z,53.05
2022-10-20T07:16:21.305Z,53.09
2022-10-20T07:18:48.971Z,52.55
2022-10-20T07:21:17.674Z,52.72
2022-10-20T07:23:45.318Z,52.67
2022-10-20T07:26:15.532Z,52.37
2022-10-20T07:28:43.828Z,52.33
2022-10-20T07:31:12.562Z,52.25
2022-10-20T07:33:40.242Z,51.75
2022-10-20T07:36:15.161Z,51.68
2022-10-20T07:38:42.821Z,51.71
2022-10-20T07:41:10.767Z,50.95
2022-10-20T07:43:39.898Z,50.76
2022-10-20T07:46:07.546Z,50.52
2022-10-20T07:48:35.483Z,50.40
2022-10-20T07:51:19.277Z,49.79
2022-10-20T07:53:46.943Z,49.49
2022-10-20T07:56:14.651Z,49.59
2022-10-20T07:58:43.957Z,48.80
2022-10-20T08:01:11.530Z,48.30
2022-10-20T08:03:39.120Z,48.50
2022-10-20T08:06:07.186Z,48.49
2022-10-20T08:08:35.112Z,48.73
2022-10-20T08:11:02.710Z,48.74
2022-10-20T08:13:30.750Z,49.21
2022-10-20T08:16:02.698Z,48.70
2022-10-20T08:18:33.316Z,48.94
2022-10-20T08:21:10.969Z,48.83
2022-10-20T08:23:42.025Z,48.58
2022-10-20T08:26:11.444Z,48.57
2022-10-20T08:28:40.286Z,48.15
2022-10-20T08:31:09.580Z,48.09
2022-10-20T08:33:37.182Z,47.53
2022-10-20T08:36:05.866Z,47.23
2022-10-20T08:38:33.590Z,46.90
2022-10-20T08:41:01.370Z,46.79
2022-10-20T08:43:28.938Z,46.41
2022-10-20T08:45:56.607Z,45.74
2022-10-20T08:48:27.090Z,45.68
2022-10-20T08:50:54.638Z,45.95
2022-10-20T08:53:23.726Z,45.53
2022-10-20T08:55:52.696Z,45.89
2022-10-20T08:58:21.267Z,45.84
2022-10-20T09:00:48.975Z,46.24
2022-10-20T09:03:18.258Z,46.17
2022-10-20T09:05:48.981Z,45.66
2022-10-20T09:08:16.755Z,45.74
2022-10-20T09:10:46.657Z,45.26
2022-10-20T09:13:20.962Z,44.81
2022-10-20T09:15:49.467Z,43.72
2022-10-20T09:18:17.095Z,42.93
2022-10-20T09:20:47.465Z,43.11
2022-10-20T09:23:35.390Z,43.11
2022-10-20T09:26:03.121Z,43.70
2022-10-20T09:28:34.975Z,43.91
2022-10-20T09:31:22.006Z,44.33
2022-10-20T09:33:49.578Z,45.03
2022-10-20T09:36:19.039Z,45.29
2022-10-20T09:38:48.095Z,45.35
2022-10-20T09:41:17.548Z,45.98
2022-10-20T09:43:50.572Z,46.30
2022-10-20T09:46:20.073Z,46.65
2022-10-20T09:48:48.647Z,46.76
2022-10-20T09:51:19.800Z,46.55
2022-10-20T09:53:51.795Z,46.61
2022-10-20T09:56:30.015Z,47.11
2022-10-20T09:58:57.793Z,47.78
2022-10-20T10:01:25.634Z,47.79
2022-10-20T10:03:56.027Z,47.97
2022-10-20T10:06:31.319Z,47.96
2022-10-20T10:08:59.597Z,48.41
2022-10-20T10:11:29.882Z,48.10
2022-10-20T10:13:57.491Z,48.24
2022-10-20T10:16:26.453Z,48.41
2022-10-20T10:18:59.772Z,47.75
2022-10-20T10:21:29.106Z,47.93
2022-10-20T10:23:57.551Z,47.82
2022-10-20T10:26:35.895Z,47.80
2022-10-20T10:29:03.860Z,47.94
2022-10-20T10:31:31.463Z,48.28
2022-10-20T10:34:22.261Z,48.41
2022-10-20T10:36:51.230Z,48.74
2022-10-20T10:39:19.947Z,49.30
2022-10-20T10:44:37.871Z,50.90
2022-10-20T10:47:11.126Z,51.35
2022-10-20T10:49:43.348Z,51.81
2022-10-20T10:52:20.858Z,50.94
2022-10-20T10:54:58.495Z,50.22
2022-10-20T10:57:31.042Z,50.78
2022-10-20T10:59:59.931Z,51.35
2022-10-20T11:03:08.287Z,51.29
2022-10-20T11:05:59.447Z,51.40
2022-10-20T11:08:34.471Z,51.76
2022-10-20T11:11:05.478Z,51.52
2022-10-20T11:13:36.621Z,50.71
2022-10-20T11:16:25.725Z,49.87
2022-10-20T11:19:05.127Z,50.22
2022-10-20T11:21:34.768Z,50.56
2022-10-20T11:24:40.195Z,50.52
2022-10-20T11:27:10.634Z,50.93
2022-10-20T11:29:39.028Z,50.88
2022-10-20T11:32:10.439Z,50.62
2022-10-20T11:34:39.405Z,51.35
2022-10-20T11:37:08.794Z,50.79
2022-10-20T11:39:40.594Z,51.31
2022-10-20T11:42:16.622Z,51.80
2022-10-20T11:44:44.439Z,51.74
2022-10-20T11:47:14.412Z,52.54
2022-10-20T11:49:42.062Z,52.70
2022-10-20T11:52:17.445Z,53.43
2022-10-20T11:55:05.342Z,53.74
2022-10-20T11:57:41.528Z,54.38
2022-10-20T12:03:23.212Z,55.37
2022-10-20T12:06:15.258Z,56.50
2022-10-20T12:08:52.910Z,57.27
2022-10-20T12:11:25.279Z,57.72
2022-10-20T12:13:57.738Z,57.97
2022-10-20T12:17:05.561Z,58.25
2022-10-20T12:19:33.957Z,58.81
2022-10-20T12:22:02.433Z,58.94
2022-10-20T12:24:31.493Z,58.97
2022-10-20T12:27:19.413Z,60.01
2022-10-20T12:29:52.146Z,60.27
2022-10-20T12:33:00.949Z,60.37
2022-10-20T12:35:44.688Z,60.69
2022-10-20T12:38:17.026Z,61.06
2022-10-20T12:40:45.777Z,61.07
2022-10-20T12:43:25.616Z,61.07
2022-10-20T12:45:53.196Z,61.17
2022-10-20T12:48:21.800Z,60.86
2022-10-20T12:50:50.131Z,61.70
2022-10-20T12:53:21.316Z,62.01
2022-10-20T12:55:58.985Z,62.28
2022-10-20T12:58:29.785Z,62.27
2022-10-20T13:01:08.816Z,62.60
2022-10-20T13:03:38.550Z,62.74
2022-10-20T13:06:39.404Z,62.65
2022-10-20T13:09:28.423Z,62.65
2022-10-20T13:12:00.904Z,62.54
2022-10-20T13:14:42.715Z,62.22
2022-10-20T13:17:17.766Z,61.96
2022-10-20T13:19:46.320Z,61.62
2022-10-20T13:22:37.817Z,61.43
2022-10-20T13:25:07.319Z,61.09
2022-10-20T13:27:35.200Z,60.51
2022-10-20T13:30:07.290Z,60.54
2022-10-20T13:32:43.414Z,60.67
2022-10-20T13:35:23.438Z,60.22
2022-10-20T13:37:57.606Z,60.00
2022-10-20T13:40:31.099Z,60.30
2022-10-20T13:43:19.865Z,60.11
2022-10-20T13:46:06.864Z,59.64
2022-10-20T13:48:41.892Z,59.79
2022-10-20T13:51:13.278Z,59.71
2022-10-20T13:53:43.844Z,59.68
2022-10-20T13:56:20.609Z,58.88
2022-10-20T13:59:01.895Z,59.09
2022-10-20T14:01:35.019Z,59.37
2022-10-20T14:04:02.915Z,59.17
2022-10-20T14:06:31.974Z,59.34
2022-10-20T14:09:00.448Z,58.93
2022-10-20T14:11:30.468Z,58.86
2022-10-20T14:13:58.182Z,58.90
2022-10-20T14:16:27.845Z,58.42
2022-10-20T14:19:03.340Z,57.75
2022-10-20T14:21:42.949Z,57.87
2022-10-20T14:24:16.799Z,57.17
2022-10-20T14:26:45.167Z,56.98
2022-10-20T14:29:13.491Z,56.40
2022-10-20T14:31:41.115Z,56.48
2022-10-20T14:34:18.803Z,56.34
2022-10-20T14:36:46.373Z,56.15
2022-10-20T14:39:21.656Z,56.32
2022-10-20T14:41:49.260Z,56.03
2022-10-20T14:44:31.100Z,55.70
2022-10-20T14:47:00.853Z,55.88
2022-10-20T14:49:30.959Z,55.89
2022-10-20T14:51:59.608Z,55.96
2022-10-20T14:54:32.413Z,55.95
2022-10-20T14:57:00.805Z,56.08
2022-10-20T14:59:33.026Z,55.89
2022-10-20T15:02:04.826Z,55.47
2022-10-20T15:04:36.179Z,55.77
2022-10-20T15:07:05.840Z,55.84
2022-10-20T15:09:40.153Z,55.81
2022-10-20T15:12:08.434Z,56.01
2022-10-20T15:14:36.144Z,55.86
2022-10-20T15:17:04.178Z,55.98
2022-10-20T15:19:35.256Z,56.36
2022-10-20T15:24:48.910Z,57.40
2022-10-20T15:27:17.802Z,57.69
2022-10-20T15:29:48.632Z,57.80
2022-10-20T15:32:16.764Z,58.05
2022-10-20T15:34:46.116Z,58.33
2022-10-20T15:37:13.760Z,58.22
2022-10-20T15:39:41.394Z,58.35
2022-10-20T15:42:11.929Z,58.68
2022-10-20T15:44:39.521Z,58.72
2022-10-20T15:47:07.343Z,58.60
2022-10-20T15:49:34.932Z,58.62
2022-10-20T15:52:04.167Z,58.65
2022-10-20T15:54:31.730Z,58.60
2022-10-20T15:56:59.441Z,58.59
2022-10-20T15:59:27.484Z,58.88
2022-10-20T16:01:55.301Z,58.72
2022-10-20T16:04:26.063Z,58.84
2022-10-20T16:06:57.741Z,59.14
2022-10-20T16:09:28.193Z,58.94
2022-10-20T16:11:59.179Z,59.02
2022-10-20T16:14:26.695Z,59.32
2022-10-20T16:16:54.406Z,58.93
2022-10-20T16:19:21.940Z,59.06
2022-10-20T16:21:49.686Z,59.05
2022-10-20T16:24:17.324Z,59.38
2022-10-20T16:26:46.265Z,59.31
2022-10-20T16:29:13.836Z,59.42
2022-10-20T16:31:41.454Z,59.70
2022-10-20T16:34:09.118Z,59.49
2022-10-20T16:36:36.707Z,59.80
2022-10-20T16:39:04.320Z,59.69
2022-10-20T16:41:31.931Z,59.63
2022-10-20T16:44:01.365Z,59.73
2022-10-20T16:46:29.057Z,59.92
2022-10-20T16:48:57.144Z,59.97
2022-10-20T16:51:24.750Z,60.05
2022-10-20T16:53:52.449Z,59.95
2022-10-20T16:56:21.085Z,60.03
2022-10-20T16:58:49.028Z,60.27
2022-10-20T17:01:19.307Z,60.30
2022-10-20T17:03:50.584Z,60.45
2022-10-20T17:06:19.413Z,60.07
2022-10-20T17:08:47.522Z,59.81
2022-10-20T17:11:16.027Z,60.18
2022-10-20T17:13:43.979Z,60.36
2022-10-20T17:16:13.063Z,60.38
2022-10-20T17:18:42.257Z,60.14
2022-10-20T17:21:10.247Z,60.28
2022-10-20T17:23:41.686Z,60.45
2022-10-20T17:26:12.426Z,60.05
2022-10-20T17:28:40.114Z,60.19
2022-10-20T17:31:08.524Z,59.88
2022-10-20T17:33:37.384Z,60.34
2022-10-20T17:36:07.360Z,60.12
2022-10-20T17:38:35.870Z,60.09
2022-10-20T17:41:04.412Z,60.45
2022-10-20T17:43:35.637Z,60.67
2022-10-20T17:46:04.504Z,60.64
2022-10-20T17:48:32.301Z,60.80
2022-10-20T17:51:01.438Z,60.76
2022-10-20T17:53:32.366Z,60.63
2022-10-20T17:56:03.698Z,60.48
2022-10-20T17:58:33.723Z,60.85
2022-10-20T18:01:09.721Z,60.73
2022-10-20T18:03:37.634Z,61.00
2022-10-20T18:06:09.941Z,61.35
2022-10-20T18:08:39.378Z,61.04
2022-10-20T18:11:10.404Z,61.00
2022-10-20T18:13:38.846Z,61.16
2022-10-20T18:16:08.006Z,61.41
2022-10-20T18:18:35.898Z,61.28
2022-10-20T18:21:04.344Z,61.19
2022-10-20T18:23:33.432Z,61.29
2022-10-20T18:26:07.869Z,61.42
2022-10-20T18:28:36.335Z,61.20
2022-10-20T18:31:07.432Z,61.27
2022-10-20T18:33:35.242Z,61.42
2022-10-20T18:36:04.323Z,61.26
2022-10-20T18:38:32.330Z,61.37
2022-10-20T18:41:06.657Z,61.41
2022-10-20T18:43:34.622Z,61.30
2022-10-20T18:46:02.846Z,60.83
2022-10-20T18:48:31.369Z,61.49
2022-10-20T18:51:00.267Z,61.26
2022-10-20T18:53:28.506Z,60.92
2022-10-20T18:56:02.455Z,61.39
2022-10-20T18:58:35.152Z,61.45
2022-10-20T19:01:04.480Z,61.32
2022-10-20T19:03:34.237Z,61.62
2022-10-20T19:06:02.544Z,61.27
2022-10-20T19:08:30.537Z,61.52
2022-10-20T19:10:58.388Z,61.71
2022-10-20T19:13:26.937Z,61.90
2022-10-20T19:15:56.504Z,61.74
2022-10-20T19:18:24.390Z,61.79
2022-10-20T19:20:55.665Z,62.09
2022-10-20T19:23:27.250Z,61.68
2022-10-20T19:26:05.945Z,62.00
2022-10-20T19:28:34.609Z,61.96
2022-10-20T19:31:03.790Z,61.88
2022-10-20T19:33:31.547Z,61.96
2022-10-20T19:35:59.398Z,61.79
2022-10-20T19:38:27.148Z,61.63
2022-10-20T19:40:55.051Z,61.95
2022-10-20T19:43:22.898Z,61.61
2022-10-20T19:45:50.610Z,61.73
2022-10-20T19:48:21.071Z,61.45
2022-10-20T19:50:48.794Z,61.66
2022-10-20T19:53:16.664Z,61.85
2022-10-20T19:55:47.360Z,61.78
2022-10-20T19:58:15.108Z,61.68
2022-10-20T20:00:44.476Z,61.74
2022-10-20T20:03:12.234Z,61.46
2022-10-20T20:05:41.288Z,61.36
2022-10-20T20:08:09.091Z,61.76
2022-10-20T20:10:37.451Z,61.14
2022-10-20T20:13:05.295Z,61.45
2022-10-20T20:15:33.076Z,61.31
2022-10-20T20:18:00.718Z,61.15
2022-10-20T20:20:28.353Z,61.39
2022-10-20T20:22:57.494Z,61.14
2022-10-20T20:25:25.139Z,61.24
2022-10-20T20:27:54.824Z,61.28
2022-10-20T20:30:22.538Z,61.00
2022-10-20T20:32:53.530Z,60.95
2022-10-20T20:35:22.047Z,60.46
2022-10-20T20:37:50.143Z,61.28
2022-10-20T20:40:20.144Z,61.10
2022-10-20T20:42:48.164Z,61.11
2022-10-20T20:45:16.051Z,61.02
2022-10-20T20:47:46.683Z,61.09
2022-10-20T20:50:14.653Z,61.19
2022-10-20T20:52:42.377Z,61.63
2022-10-20T20:55:10.524Z,61.61
2022-10-20T20:57:39.770Z,62.14
2022-10-20T21:00:08.893Z,61.63
2022-10-20T21:02:36.654Z,61.85
2022-10-20T21:05:04.549Z,61.60
2022-10-20T21:07:32.378Z,61.67
2022-10-20T21:10:00.329Z,61.53
2022-10-20T21:12:29.644Z,61.67
2022-10-20T21:15:00.869Z,61.77
2022-10-20T21:17:28.538Z,61.55
2022-10-20T21:19:56.311Z,61.54
2022-10-20T21:22:24.006Z,61.94
2022-10-20T21:24:51.686Z,61.67
2022-10-20T21:27:19.329Z,61.91
2022-10-20T21:29:48.494Z,62.14
2022-10-20T21:32:18.447Z,62.11
2022-10-20T21:34:46.268Z,61.88
2022-10-20T21:37:14.674Z,61.99
2022-10-20T21:39:43.375Z,61.76
2022-10-20T21:42:11.030Z,61.93
2022-10-20T21:44:38.851Z,62.07
2022-10-20T21:47:06.489Z,61.80
2022-10-20T21:49:35.902Z,61.50
2022-10-20T21:52:03.581Z,61.74
2022-10-20T21:54:32.703Z,61.72
2022-10-20T21:57:03.103Z,61.70
2022-10-20T21:59:31.219Z,61.16
2022-10-20T22:01:59.679Z,61.71
2022-10-20T22:04:28.496Z,62.51
2022-10-20T22:06:57.553Z,62.81
2022-10-20T22:09:25.178Z,62.75
2022-10-20T22:11:55.050Z,63.10
2022-10-20T22:14:22.796Z,62.75
2022-10-20T22:16:50.413Z,62.79
2022-10-20T22:19:19.718Z,62.95
2022-10-20T22:21:48.157Z,62.92
2022-10-20T22:24:18.484Z,63.34
2022-10-20T22:26:46.311Z,63.27
2022-10-20T22:29:13.978Z,63.04
2022-10-20T22:31:41.827Z,63.44
2022-10-20T22:34:09.494Z,63.51
2022-10-20T22:36:37.187Z,63.38
2022-10-20T22:39:05.152Z,63.90
2022-10-20T22:41:34.314Z,63.95
2022-10-20T22:44:01.996Z,64.34
2022-10-20T22:46:29.681Z,64.77
2022-10-20T22:51:24.953Z,65.04
2022-10-20T22:53:52.612Z,65.24
2022-10-20T22:56:21.314Z,65.17
2022-10-20T22:58:50.480Z,65.91
2022-10-20T23:01:19.101Z,65.37
2022-10-20T23:06:23.681Z,65.24
2022-10-20T23:08:52.250Z,65.28
2022-10-20T23:11:20.042Z,65.37
2022-10-20T23:13:48.019Z,65.31
2022-10-20T23:16:17.022Z,65.24
2022-10-20T23:18:44.566Z,64.97
2022-10-20T23:21:12.236Z,64.95
2022-10-20T23:23:39.745Z,64.83
2022-10-20T23:26:09.136Z,64.79
2022-10-20T23:28:37.074Z,64.94
2022-10-20T23:31:09.264Z,64.71
2022-10-20T23:33:38.243Z,64.75
2022-10-20T23:36:06.180Z,64.73
2022-10-20T23:38:33.714Z,64.81
2022-10-20T23:41:01.368Z,64.43
2022-10-20T23:43:30.029Z,64.40
2022-10-20T23:45:57.686Z,64.45
2022-10-20T23:48:25.375Z,64.23
2022-10-20T23:50:54.379Z,64.15
2022-10-20T23:53:22.059Z,64.27
2022-10-20T23:55:49.630Z,64.30
2022-10-20T23:58:20.963Z,64.05
